sensor_id;sensor_type;location;lat;lon;timestamp;temperature;humidity
48019;DHT22;33786;48.690;9.562;2023-12-04T00:00:23;-8.20;99.90
48019;DHT22;33786;48.690;9.562;2023-12-04T00:02:49;-8.20;99.90
48019;DHT22;33786;48.690;9.562;2023-12-04T00:05:16;-8.10;99.90
48019;DHT22;33786;48.690;9.562;2023-12-04T00:07:43;-8.10;99.90
48019;DHT22;33786;48.690;9.562;2023-12-04T00:10:10;-8.00;99.90
48019;DHT22;33786;48.690;9.562;2023-12-04T00:12:37;-8.00;99.90
48019;DHT22;33786;48.690;9.562;2023-12-04T00:15:03;-8.00;99.90
48019;DHT22;33786;48.690;9.562;2023-12-04T00:17:30;-7.90;99.90
48019;DHT22;33786;48.690;9.562;2023-12-04T00:19:57;-7.90;99.90
48019;DHT22;33786;48.690;9.562;2023-12-04T00:22:24;-7.90;99.90
48019;DHT22;33786;48.690;9.562;2023-12-04T00:24:51;-8.00;99.90
48019;DHT22;33786;48.690;9.562;2023-12-04T00:27:18;-8.00;99.90
48019;DHT22;33786;48.690;9.562;2023-12-04T00:29:44;-8.00;99.90
48019;DHT22;33786;48.690;9.562;2023-12-04T00:32:11;-8.10;99.90
48019;DHT22;33786;48.690;9.562;2023-12-04T00:34:38;-8.10;99.90
48019;DHT22;33786;48.690;9.562;2023-12-04T00:37:05;-8.20;99.90
48019;DHT22;33786;48.690;9.562;2023-12-04T00:39:32;-8.20;99.90
48019;DHT22;33786;48.690;9.562;2023-12-04T00:41:59;-8.30;99.90
48019;DHT22;33786;48.690;9.562;2023-12-04T00:44:25;-8.30;99.90
48019;DHT22;33786;48.690;9.562;2023-12-04T00:46:52;-8.40;99.90
48019;DHT22;33786;48.690;9.562;2023-12-04T00:49:19;-8.40;99.90
48019;DHT22;33786;48.690;9.562;2023-12-04T00:51:46;-8.50;99.90
48019;DHT22;33786;48.690;9.562;2023-12-04T00:54:13;-8.50;99.90
48019;DHT22;33786;48.690;9.562;2023-12-04T00:56:40;-8.50;99.90
48019;DHT22;33786;48.690;9.562;2023-12-04T00:59:09;-8.50;99.90
48019;DHT22;33786;48.690;9.562;2023-12-04T01:01:36;-8.50;99.90
48019;DHT22;33786;48.690;9.562;2023-12-04T01:04:03;-8.40;99.90
48019;DHT22;33786;48.690;9.562;2023-12-04T01:06:30;-8.40;99.90
48019;DHT22;33786;48.690;9.562;2023-12-04T01:08:57;-8.50;99.90
48019;DHT22;33786;48.690;9.562;2023-12-04T01:11:24;-8.40;99.90
48019;DHT22;33786;48.690;9.562;2023-12-04T01:13:51;-8.40;99.90
48019;DHT22;33786;48.690;9.562;2023-12-04T01:16:17;-8.50;99.90
48019;DHT22;33786;48.690;9.562;2023-12-04T01:18:44;-8.40;99.90
48019;DHT22;33786;48.690;9.562;2023-12-04T01:21:11;-8.40;99.90
48019;DHT22;33786;48.690;9.562;2023-12-04T01:23:38;-8.40;99.90
48019;DHT22;33786;48.690;9.562;2023-12-04T01:26:05;-8.40;99.90
48019;DHT22;33786;48.690;9.562;2023-12-04T01:28:32;-8.40;99.90
48019;DHT22;33786;48.690;9.562;2023-12-04T01:30:59;-8.30;99.90
48019;DHT22;33786;48.690;9.562;2023-12-04T01:33:26;-8.30;99.90
48019;DHT22;33786;48.690;9.562;2023-12-04T01:35:53;-8.30;99.90
48019;DHT22;33786;48.690;9.562;2023-12-04T01:38:19;-8.20;99.90
48019;DHT22;33786;48.690;9.562;2023-12-04T01:40:46;-8.30;99.90
48019;DHT22;33786;48.690;9.562;2023-12-04T01:43:13;-8.20;99.90
48019;DHT22;33786;48.690;9.562;2023-12-04T01:45:40;-8.20;99.90
48019;DHT22;33786;48.690;9.562;2023-12-04T01:48:07;-8.20;99.90
48019;DHT22;33786;48.690;9.562;2023-12-04T01:50:35;-8.20;99.90
48019;DHT22;33786;48.690;9.562;2023-12-04T01:53:02;-8.20;99.90
48019;DHT22;33786;48.690;9.562;2023-12-04T01:55:29;-8.20;99.90
48019;DHT22;33786;48.690;9.562;2023-12-04T01:57:57;-8.10;99.90
48019;DHT22;33786;48.690;9.562;2023-12-04T02:00:25;-8.10;99.90
48019;DHT22;33786;48.690;9.562;2023-12-04T02:02:52;-8.10;99.90
48019;DHT22;33786;48.690;9.562;2023-12-04T02:05:19;-8.00;99.90
48019;DHT22;33786;48.690;9.562;2023-12-04T02:07:47;-7.90;99.90
48019;DHT22;33786;48.690;9.562;2023-12-04T02:10:14;-7.90;99.90
48019;DHT22;33786;48.690;9.562;2023-12-04T02:12:40;-7.80;99.90
48019;DHT22;33786;48.690;9.562;2023-12-04T02:15:07;-7.80;99.90
48019;DHT22;33786;48.690;9.562;2023-12-04T02:17:35;-7.80;99.90
48019;DHT22;33786;48.690;9.562;2023-12-04T02:20:03;-7.90;99.90
48019;DHT22;33786;48.690;9.562;2023-12-04T02:22:31;-7.90;99.90
48019;DHT22;33786;48.690;9.562;2023-12-04T02:24:58;-7.80;99.90
48019;DHT22;33786;48.690;9.562;2023-12-04T02:27:28;-7.80;99.90
48019;DHT22;33786;48.690;9.562;2023-12-04T02:30:05;-7.80;99.90
48019;DHT22;33786;48.690;9.562;2023-12-04T02:32:35;-7.70;99.90
48019;DHT22;33786;48.690;9.562;2023-12-04T02:35:04;-7.60;99.90
48019;DHT22;33786;48.690;9.562;2023-12-04T02:37:31;-7.70;99.90
48019;DHT22;33786;48.690;9.562;2023-12-04T02:39:59;-7.60;99.90
48019;DHT22;33786;48.690;9.562;2023-12-04T02:42:26;-7.60;99.90
48019;DHT22;33786;48.690;9.562;2023-12-04T02:44:53;-7.60;99.90
48019;DHT22;33786;48.690;9.562;2023-12-04T02:47:20;-7.60;99.90
48019;DHT22;33786;48.690;9.562;2023-12-04T02:49:46;-7.50;99.90
48019;DHT22;33786;48.690;9.562;2023-12-04T02:52:13;-7.60;99.90
48019;DHT22;33786;48.690;9.562;2023-12-04T02:54:40;-7.50;99.90
48019;DHT22;33786;48.690;9.562;2023-12-04T02:57:07;-7.50;99.90
48019;DHT22;33786;48.690;9.562;2023-12-04T02:59:33;-7.50;99.90
48019;DHT22;33786;48.690;9.562;2023-12-04T03:02:00;-7.40;99.90
48019;DHT22;33786;48.690;9.562;2023-12-04T03:04:30;-7.50;99.90
48019;DHT22;33786;48.690;9.562;2023-12-04T03:06:57;-7.50;99.90
48019;DHT22;33786;48.690;9.562;2023-12-04T03:09:24;-7.50;99.90
48019;DHT22;33786;48.690;9.562;2023-12-04T03:12:11;-7.40;99.90
48019;DHT22;33786;48.690;9.562;2023-12-04T03:14:37;-7.40;99.90
48019;DHT22;33786;48.690;9.562;2023-12-04T03:17:04;-7.40;99.90
48019;DHT22;33786;48.690;9.562;2023-12-04T03:19:31;-7.40;99.90
48019;DHT22;33786;48.690;9.562;2023-12-04T03:21:59;-7.40;99.90
48019;DHT22;33786;48.690;9.562;2023-12-04T03:24:26;-7.40;99.90
48019;DHT22;33786;48.690;9.562;2023-12-04T03:26:53;-7.40;99.90
48019;DHT22;33786;48.690;9.562;2023-12-04T03:29:19;-7.40;99.90
48019;DHT22;33786;48.690;9.562;2023-12-04T03:31:46;-7.30;99.90
48019;DHT22;33786;48.690;9.562;2023-12-04T03:34:13;-7.30;99.90
48019;DHT22;33786;48.690;9.562;2023-12-04T03:36:40;-7.30;99.90
48019;DHT22;33786;48.690;9.562;2023-12-04T03:39:06;-7.20;99.90
48019;DHT22;33786;48.690;9.562;2023-12-04T03:41:33;-7.20;99.90
48019;DHT22;33786;48.690;9.562;2023-12-04T03:44:00;-7.10;99.90
48019;DHT22;33786;48.690;9.562;2023-12-04T03:46:27;-7.00;99.90
48019;DHT22;33786;48.690;9.562;2023-12-04T03:48:53;-7.00;99.90
48019;DHT22;33786;48.690;9.562;2023-12-04T03:51:20;-6.90;99.90
48019;DHT22;33786;48.690;9.562;2023-12-04T03:53:47;-6.90;99.90
48019;DHT22;33786;48.690;9.562;2023-12-04T03:56:14;-6.90;99.90
48019;DHT22;33786;48.690;9.562;2023-12-04T03:58:40;-6.80;99.90
48019;DHT22;33786;48.690;9.562;2023-12-04T04:01:07;-6.80;99.90
48019;DHT22;33786;48.690;9.562;2023-12-04T04:03:34;-6.70;99.90
48019;DHT22;33786;48.690;9.562;2023-12-04T04:06:01;-6.60;99.90
48019;DHT22;33786;48.690;9.562;2023-12-04T04:08:28;-6.50;99.90
48019;DHT22;33786;48.690;9.562;2023-12-04T04:10:54;-6.50;99.90
48019;DHT22;33786;48.690;9.562;2023-12-04T04:13:21;-6.40;99.90
48019;DHT22;33786;48.690;9.562;2023-12-04T04:15:48;-6.30;99.90
48019;DHT22;33786;48.690;9.562;2023-12-04T04:18:15;-6.30;99.90
48019;DHT22;33786;48.690;9.562;2023-12-04T04:20:42;-6.30;99.90
48019;DHT22;33786;48.690;9.562;2023-12-04T04:23:08;-6.30;99.90
48019;DHT22;33786;48.690;9.562;2023-12-04T04:25:35;-6.30;99.90
48019;DHT22;33786;48.690;9.562;2023-12-04T04:28:02;-6.30;99.90
48019;DHT22;33786;48.690;9.562;2023-12-04T04:30:29;-6.30;99.90
48019;DHT22;33786;48.690;9.562;2023-12-04T04:32:57;-6.30;99.90
48019;DHT22;33786;48.690;9.562;2023-12-04T04:35:24;-6.30;99.90
48019;DHT22;33786;48.690;9.562;2023-12-04T04:37:50;-6.20;99.90
48019;DHT22;33786;48.690;9.562;2023-12-04T04:40:17;-6.10;99.90
48019;DHT22;33786;48.690;9.562;2023-12-04T04:42:44;-6.10;99.90
48019;DHT22;33786;48.690;9.562;2023-12-04T04:45:11;-6.00;99.90
48019;DHT22;33786;48.690;9.562;2023-12-04T04:47:38;-6.00;99.90
48019;DHT22;33786;48.690;9.562;2023-12-04T04:50:05;-5.90;99.90
48019;DHT22;33786;48.690;9.562;2023-12-04T04:52:31;-6.00;99.90
48019;DHT22;33786;48.690;9.562;2023-12-04T04:54:58;-5.90;99.90
48019;DHT22;33786;48.690;9.562;2023-12-04T04:57:25;-5.90;99.90
48019;DHT22;33786;48.690;9.562;2023-12-04T04:59:52;-5.90;99.90
48019;DHT22;33786;48.690;9.562;2023-12-04T05:02:18;-5.90;99.90
48019;DHT22;33786;48.690;9.562;2023-12-04T05:04:45;-5.90;99.90
48019;DHT22;33786;48.690;9.562;2023-12-04T05:07:12;-5.90;99.90
48019;DHT22;33786;48.690;9.562;2023-12-04T05:09:39;-5.90;99.90
48019;DHT22;33786;48.690;9.562;2023-12-04T05:12:06;-5.80;99.90
48019;DHT22;33786;48.690;9.562;2023-12-04T05:14:33;-5.80;99.90
48019;DHT22;33786;48.690;9.562;2023-12-04T05:17:00;-5.80;99.90
48019;DHT22;33786;48.690;9.562;2023-12-04T05:19:26;-5.70;99.90
48019;DHT22;33786;48.690;9.562;2023-12-04T05:21:53;-5.80;99.90
48019;DHT22;33786;48.690;9.562;2023-12-04T05:24:20;-5.80;99.90
48019;DHT22;33786;48.690;9.562;2023-12-04T05:26:47;-5.70;99.90
48019;DHT22;33786;48.690;9.562;2023-12-04T05:29:14;-5.70;99.90
48019;DHT22;33786;48.690;9.562;2023-12-04T05:31:41;-5.70;99.90
48019;DHT22;33786;48.690;9.562;2023-12-04T05:34:07;-5.70;99.90
48019;DHT22;33786;48.690;9.562;2023-12-04T05:36:34;-5.60;99.90
48019;DHT22;33786;48.690;9.562;2023-12-04T05:39:01;-5.60;99.90
48019;DHT22;33786;48.690;9.562;2023-12-04T05:41:28;-5.60;99.90
48019;DHT22;33786;48.690;9.562;2023-12-04T05:43:55;-5.70;99.90
48019;DHT22;33786;48.690;9.562;2023-12-04T05:46:22;-5.70;99.90
48019;DHT22;33786;48.690;9.562;2023-12-04T05:48:49;-5.80;99.90
48019;DHT22;33786;48.690;9.562;2023-12-04T05:51:16;-5.80;99.90
48019;DHT22;33786;48.690;9.562;2023-12-04T05:53:45;-5.90;99.90
48019;DHT22;33786;48.690;9.562;2023-12-04T05:56:11;-6.00;99.90
48019;DHT22;33786;48.690;9.562;2023-12-04T05:58:38;-5.50;99.90
48019;DHT22;33786;48.690;9.562;2023-12-04T06:01:05;-5.90;99.90
48019;DHT22;33786;48.690;9.562;2023-12-04T06:03:33;-5.90;99.90
48019;DHT22;33786;48.690;9.562;2023-12-04T06:06:00;-5.90;99.90
48019;DHT22;33786;48.690;9.562;2023-12-04T06:08:30;-5.90;99.90
48019;DHT22;33786;48.690;9.562;2023-12-04T06:10:57;-5.90;99.90
48019;DHT22;33786;48.690;9.562;2023-12-04T06:13:24;-5.90;99.90
48019;DHT22;33786;48.690;9.562;2023-12-04T06:15:52;-5.90;99.90
48019;DHT22;33786;48.690;9.562;2023-12-04T06:18:19;-5.90;99.90
48019;DHT22;33786;48.690;9.562;2023-12-04T06:20:47;-6.00;99.90
48019;DHT22;33786;48.690;9.562;2023-12-04T06:23:14;-6.00;99.90
48019;DHT22;33786;48.690;9.562;2023-12-04T06:25:41;-6.00;99.90
48019;DHT22;33786;48.690;9.562;2023-12-04T06:28:08;-5.90;99.90
48019;DHT22;33786;48.690;9.562;2023-12-04T06:30:35;-5.90;99.90
48019;DHT22;33786;48.690;9.562;2023-12-04T06:33:02;-5.90;99.90
48019;DHT22;33786;48.690;9.562;2023-12-04T06:35:29;-5.90;99.90
48019;DHT22;33786;48.690;9.562;2023-12-04T06:37:56;-5.90;99.90
48019;DHT22;33786;48.690;9.562;2023-12-04T06:40:26;-5.90;99.90
48019;DHT22;33786;48.690;9.562;2023-12-04T06:42:53;-5.90;99.90
48019;DHT22;33786;48.690;9.562;2023-12-04T06:45:20;-5.80;99.90
48019;DHT22;33786;48.690;9.562;2023-12-04T06:47:47;-5.80;99.90
48019;DHT22;33786;48.690;9.562;2023-12-04T06:50:16;-5.70;99.90
48019;DHT22;33786;48.690;9.562;2023-12-04T06:52:43;-5.70;99.90
48019;DHT22;33786;48.690;9.562;2023-12-04T06:55:10;-5.60;99.90
48019;DHT22;33786;48.690;9.562;2023-12-04T06:57:37;-5.50;99.90
48019;DHT22;33786;48.690;9.562;2023-12-04T07:00:04;-5.50;99.90
48019;DHT22;33786;48.690;9.562;2023-12-04T07:02:48;-5.50;99.90
48019;DHT22;33786;48.690;9.562;2023-12-04T07:05:16;-5.40;99.90
48019;DHT22;33786;48.690;9.562;2023-12-04T07:07:43;-5.40;99.90
48019;DHT22;33786;48.690;9.562;2023-12-04T07:10:10;-5.30;99.90
48019;DHT22;33786;48.690;9.562;2023-12-04T07:12:42;-5.30;99.90
48019;DHT22;33786;48.690;9.562;2023-12-04T07:15:09;-5.20;99.90
48019;DHT22;33786;48.690;9.562;2023-12-04T07:17:36;-5.20;99.90
48019;DHT22;33786;48.690;9.562;2023-12-04T07:20:03;-5.30;99.90
48019;DHT22;33786;48.690;9.562;2023-12-04T07:22:32;-5.30;99.90
48019;DHT22;33786;48.690;9.562;2023-12-04T07:25:05;-5.30;99.90
48019;DHT22;33786;48.690;9.562;2023-12-04T07:27:33;-5.20;99.90
48019;DHT22;33786;48.690;9.562;2023-12-04T07:30:01;-5.20;99.90
48019;DHT22;33786;48.690;9.562;2023-12-04T07:32:29;-5.20;99.90
48019;DHT22;33786;48.690;9.562;2023-12-04T07:34:56;-5.10;99.90
48019;DHT22;33786;48.690;9.562;2023-12-04T07:37:23;-5.10;99.90
48019;DHT22;33786;48.690;9.562;2023-12-04T07:39:50;-5.00;99.90
48019;DHT22;33786;48.690;9.562;2023-12-04T07:42:16;-4.90;99.90
48019;DHT22;33786;48.690;9.562;2023-12-04T07:44:43;-4.90;99.90
48019;DHT22;33786;48.690;9.562;2023-12-04T07:47:10;-4.80;99.90
48019;DHT22;33786;48.690;9.562;2023-12-04T07:49:37;-4.70;99.90
48019;DHT22;33786;48.690;9.562;2023-12-04T07:52:04;-4.60;99.90
48019;DHT22;33786;48.690;9.562;2023-12-04T07:54:31;-4.50;99.90
48019;DHT22;33786;48.690;9.562;2023-12-04T07:56:59;-4.50;99.90
48019;DHT22;33786;48.690;9.562;2023-12-04T07:59:26;-4.30;99.90
48019;DHT22;33786;48.690;9.562;2023-12-04T08:01:52;-4.10;99.90
48019;DHT22;33786;48.690;9.562;2023-12-04T08:04:19;-4.00;99.90
48019;DHT22;33786;48.690;9.562;2023-12-04T08:06:46;-4.00;99.90
48019;DHT22;33786;48.690;9.562;2023-12-04T08:09:13;-4.10;99.90
48019;DHT22;33786;48.690;9.562;2023-12-04T08:11:40;-4.10;99.90
48019;DHT22;33786;48.690;9.562;2023-12-04T08:14:06;-4.10;99.90
48019;DHT22;33786;48.690;9.562;2023-12-04T08:16:33;-4.20;99.90
48019;DHT22;33786;48.690;9.562;2023-12-04T08:19:00;-4.30;99.90
48019;DHT22;33786;48.690;9.562;2023-12-04T08:21:27;-4.10;99.90
48019;DHT22;33786;48.690;9.562;2023-12-04T08:23:53;-4.20;99.90
48019;DHT22;33786;48.690;9.562;2023-12-04T08:26:21;-4.10;99.90
48019;DHT22;33786;48.690;9.562;2023-12-04T08:28:48;-4.10;99.90
48019;DHT22;33786;48.690;9.562;2023-12-04T08:31:15;-4.00;99.90
48019;DHT22;33786;48.690;9.562;2023-12-04T08:33:41;-4.00;99.90
48019;DHT22;33786;48.690;9.562;2023-12-04T08:36:09;-3.80;99.90
48019;DHT22;33786;48.690;9.562;2023-12-04T08:38:36;-3.60;99.90
48019;DHT22;33786;48.690;9.562;2023-12-04T08:41:03;-3.40;99.90
48019;DHT22;33786;48.690;9.562;2023-12-04T08:43:30;-3.10;99.90
48019;DHT22;33786;48.690;9.562;2023-12-04T08:45:57;-2.90;99.90
48019;DHT22;33786;48.690;9.562;2023-12-04T08:48:24;-2.80;99.90
48019;DHT22;33786;48.690;9.562;2023-12-04T08:50:50;-2.70;99.90
48019;DHT22;33786;48.690;9.562;2023-12-04T08:53:17;-2.70;99.90
48019;DHT22;33786;48.690;9.562;2023-12-04T08:55:44;-3.10;99.90
48019;DHT22;33786;48.690;9.562;2023-12-04T08:58:11;-3.00;99.90
48019;DHT22;33786;48.690;9.562;2023-12-04T09:00:38;-2.80;99.90
48019;DHT22;33786;48.690;9.562;2023-12-04T09:03:10;-2.80;99.90
48019;DHT22;33786;48.690;9.562;2023-12-04T09:05:48;-2.60;99.90
48019;DHT22;33786;48.690;9.562;2023-12-04T09:08:17;-2.30;99.90
48019;DHT22;33786;48.690;9.562;2023-12-04T09:11:02;-2.20;99.90
48019;DHT22;33786;48.690;9.562;2023-12-04T09:13:48;-2.10;99.90
48019;DHT22;33786;48.690;9.562;2023-12-04T09:16:15;-2.20;99.90
48019;DHT22;33786;48.690;9.562;2023-12-04T09:18:42;-2.20;99.90
48019;DHT22;33786;48.690;9.562;2023-12-04T09:21:09;-2.30;99.90
48019;DHT22;33786;48.690;9.562;2023-12-04T09:23:36;-2.60;99.90
48019;DHT22;33786;48.690;9.562;2023-12-04T09:26:04;-3.00;99.90
48019;DHT22;33786;48.690;9.562;2023-12-04T09:28:31;-2.90;99.90
48019;DHT22;33786;48.690;9.562;2023-12-04T09:30:58;-2.80;99.90
48019;DHT22;33786;48.690;9.562;2023-12-04T09:33:25;-2.60;99.90
48019;DHT22;33786;48.690;9.562;2023-12-04T09:35:53;-2.60;99.90
48019;DHT22;33786;48.690;9.562;2023-12-04T09:38:20;-2.70;99.90
48019;DHT22;33786;48.690;9.562;2023-12-04T09:40:47;-2.40;99.90
48019;DHT22;33786;48.690;9.562;2023-12-04T09:43:13;-2.20;99.90
48019;DHT22;33786;48.690;9.562;2023-12-04T09:45:40;-2.00;99.90
48019;DHT22;33786;48.690;9.562;2023-12-04T09:48:07;-1.80;99.90
48019;DHT22;33786;48.690;9.562;2023-12-04T09:50:36;-1.60;99.90
48019;DHT22;33786;48.690;9.562;2023-12-04T09:53:04;-1.40;99.90
48019;DHT22;33786;48.690;9.562;2023-12-04T09:55:32;-1.30;99.90
48019;DHT22;33786;48.690;9.562;2023-12-04T09:58:00;-1.20;99.90
48019;DHT22;33786;48.690;9.562;2023-12-04T10:00:27;-1.20;99.90
48019;DHT22;33786;48.690;9.562;2023-12-04T10:02:54;-1.20;99.90
48019;DHT22;33786;48.690;9.562;2023-12-04T10:05:21;-1.10;99.90
48019;DHT22;33786;48.690;9.562;2023-12-04T10:07:48;-0.80;99.90
48019;DHT22;33786;48.690;9.562;2023-12-04T10:10:15;-0.70;99.90
48019;DHT22;33786;48.690;9.562;2023-12-04T10:12:42;-0.90;99.90
48019;DHT22;33786;48.690;9.562;2023-12-04T10:15:10;-0.90;99.90
48019;DHT22;33786;48.690;9.562;2023-12-04T10:17:38;-0.80;99.90
48019;DHT22;33786;48.690;9.562;2023-12-04T10:20:06;-0.70;99.90
48019;DHT22;33786;48.690;9.562;2023-12-04T10:22:39;-0.70;99.90
48019;DHT22;33786;48.690;9.562;2023-12-04T10:25:13;-0.70;99.90
48019;DHT22;33786;48.690;9.562;2023-12-04T10:27:40;-0.70;99.90
48019;DHT22;33786;48.690;9.562;2023-12-04T10:30:07;-0.50;99.90
48019;DHT22;33786;48.690;9.562;2023-12-04T10:32:40;-0.50;99.90
48019;DHT22;33786;48.690;9.562;2023-12-04T10:35:08;-0.20;99.90
48019;DHT22;33786;48.690;9.562;2023-12-04T10:37:41;0.00;99.90
48019;DHT22;33786;48.690;9.562;2023-12-04T10:40:08;0.50;99.90
48019;DHT22;33786;48.690;9.562;2023-12-04T10:42:35;0.70;99.90
48019;DHT22;33786;48.690;9.562;2023-12-04T10:45:02;0.90;99.90
48019;DHT22;33786;48.690;9.562;2023-12-04T10:47:31;1.00;99.90
48019;DHT22;33786;48.690;9.562;2023-12-04T10:49:59;1.20;99.70
48019;DHT22;33786;48.690;9.562;2023-12-04T10:52:28;1.20;99.70
48019;DHT22;33786;48.690;9.562;2023-12-04T10:54:55;1.00;99.90
48019;DHT22;33786;48.690;9.562;2023-12-04T10:57:26;0.80;99.90
48019;DHT22;33786;48.690;9.562;2023-12-04T10:59:56;0.60;99.90
48019;DHT22;33786;48.690;9.562;2023-12-04T11:02:25;0.70;99.90
48019;DHT22;33786;48.690;9.562;2023-12-04T11:04:55;0.70;99.90
48019;DHT22;33786;48.690;9.562;2023-12-04T11:07:26;0.90;99.90
48019;DHT22;33786;48.690;9.562;2023-12-04T11:09:55;1.00;99.90
48019;DHT22;33786;48.690;9.562;2023-12-04T11:12:24;0.70;99.90
48019;DHT22;33786;48.690;9.562;2023-12-04T11:14:53;0.30;99.90
48019;DHT22;33786;48.690;9.562;2023-12-04T11:17:22;0.10;99.90
48019;DHT22;33786;48.690;9.562;2023-12-04T11:19:55;0.00;99.90
48019;DHT22;33786;48.690;9.562;2023-12-04T11:22:26;-0.30;99.90
48019;DHT22;33786;48.690;9.562;2023-12-04T11:24:53;-0.40;99.90
48019;DHT22;33786;48.690;9.562;2023-12-04T11:27:22;0.00;99.90
48019;DHT22;33786;48.690;9.562;2023-12-04T11:29:54;0.30;99.90
48019;DHT22;33786;48.690;9.562;2023-12-04T11:32:24;0.30;99.90
48019;DHT22;33786;48.690;9.562;2023-12-04T11:34:54;0.20;99.90
48019;DHT22;33786;48.690;9.562;2023-12-04T11:37:23;0.10;99.90
48019;DHT22;33786;48.690;9.562;2023-12-04T11:39:50;0.30;99.90
48019;DHT22;33786;48.690;9.562;2023-12-04T11:42:24;0.00;99.90
48019;DHT22;33786;48.690;9.562;2023-12-04T11:44:55;-0.10;99.90
48019;DHT22;33786;48.690;9.562;2023-12-04T11:47:23;-0.20;99.90
48019;DHT22;33786;48.690;9.562;2023-12-04T11:49:50;-0.30;99.90
48019;DHT22;33786;48.690;9.562;2023-12-04T11:52:17;-0.20;99.90
48019;DHT22;33786;48.690;9.562;2023-12-04T11:54:59;-0.30;99.90
48019;DHT22;33786;48.690;9.562;2023-12-04T11:57:26;-0.10;99.90
48019;DHT22;33786;48.690;9.562;2023-12-04T12:03:02;-0.20;99.90
48019;DHT22;33786;48.690;9.562;2023-12-04T12:05:48;-0.60;99.90
48019;DHT22;33786;48.690;9.562;2023-12-04T12:08:15;-0.70;99.90
48019;DHT22;33786;48.690;9.562;2023-12-04T12:10:43;-0.70;99.90
48019;DHT22;33786;48.690;9.562;2023-12-04T12:13:12;-0.70;99.90
48019;DHT22;33786;48.690;9.562;2023-12-04T12:15:39;-0.70;99.90
48019;DHT22;33786;48.690;9.562;2023-12-04T12:18:06;-0.60;99.90
48019;DHT22;33786;48.690;9.562;2023-12-04T12:20:36;-0.50;99.90
48019;DHT22;33786;48.690;9.562;2023-12-04T12:23:02;-0.60;99.90
48019;DHT22;33786;48.690;9.562;2023-12-04T12:25:29;-0.70;99.90
48019;DHT22;33786;48.690;9.562;2023-12-04T12:27:56;-0.60;99.90
48019;DHT22;33786;48.690;9.562;2023-12-04T12:30:23;-0.60;99.90
48019;DHT22;33786;48.690;9.562;2023-12-04T12:32:50;-0.60;99.90
48019;DHT22;33786;48.690;9.562;2023-12-04T12:35:18;-0.50;99.90
48019;DHT22;33786;48.690;9.562;2023-12-04T12:37:45;-0.50;99.90
48019;DHT22;33786;48.690;9.562;2023-12-04T12:40:12;-0.40;99.90
48019;DHT22;33786;48.690;9.562;2023-12-04T12:42:39;-0.30;99.90
48019;DHT22;33786;48.690;9.562;2023-12-04T12:45:09;-0.10;99.90
48019;DHT22;33786;48.690;9.562;2023-12-04T12:47:44;0.10;99.90
48019;DHT22;33786;48.690;9.562;2023-12-04T12:50:11;0.10;99.90
48019;DHT22;33786;48.690;9.562;2023-12-04T12:52:42;0.20;99.90
48019;DHT22;33786;48.690;9.562;2023-12-04T12:55:09;0.10;99.90
48019;DHT22;33786;48.690;9.562;2023-12-04T12:57:36;0.30;99.90
48019;DHT22;33786;48.690;9.562;2023-12-04T13:00:04;0.40;99.90
48019;DHT22;33786;48.690;9.562;2023-12-04T13:02:35;0.30;99.90
48019;DHT22;33786;48.690;9.562;2023-12-04T13:05:03;0.10;99.90
48019;DHT22;33786;48.690;9.562;2023-12-04T13:07:31;0.20;99.90
48019;DHT22;33786;48.690;9.562;2023-12-04T13:09:58;0.20;99.90
48019;DHT22;33786;48.690;9.562;2023-12-04T13:12:25;0.10;99.90
48019;DHT22;33786;48.690;9.562;2023-12-04T13:14:52;-0.20;99.90
48019;DHT22;33786;48.690;9.562;2023-12-04T13:17:18;-0.30;99.90
48019;DHT22;33786;48.690;9.562;2023-12-04T13:19:45;-0.60;99.90
48019;DHT22;33786;48.690;9.562;2023-12-04T13:22:12;-0.60;99.90
48019;DHT22;33786;48.690;9.562;2023-12-04T13:24:39;-0.40;99.90
48019;DHT22;33786;48.690;9.562;2023-12-04T13:27:07;-0.50;99.90
48019;DHT22;33786;48.690;9.562;2023-12-04T13:29:35;-0.60;99.90
48019;DHT22;33786;48.690;9.562;2023-12-04T13:32:02;-0.40;99.90
48019;DHT22;33786;48.690;9.562;2023-12-04T13:34:29;-0.40;99.90
48019;DHT22;33786;48.690;9.562;2023-12-04T13:36:56;-0.40;99.90
48019;DHT22;33786;48.690;9.562;2023-12-04T13:39:24;-0.20;99.90
48019;DHT22;33786;48.690;9.562;2023-12-04T13:42:05;-0.30;99.90
48019;DHT22;33786;48.690;9.562;2023-12-04T13:44:51;-0.40;99.90
48019;DHT22;33786;48.690;9.562;2023-12-04T13:47:18;-0.50;99.90
48019;DHT22;33786;48.690;9.562;2023-12-04T13:49:45;-0.50;99.90
48019;DHT22;33786;48.690;9.562;2023-12-04T13:52:13;-0.60;99.90
48019;DHT22;33786;48.690;9.562;2023-12-04T13:54:40;-0.60;99.90
48019;DHT22;33786;48.690;9.562;2023-12-04T13:57:14;-0.60;99.90
48019;DHT22;33786;48.690;9.562;2023-12-04T14:00:01;-0.60;99.90
48019;DHT22;33786;48.690;9.562;2023-12-04T14:02:28;-0.70;99.90
48019;DHT22;33786;48.690;9.562;2023-12-04T14:04:55;-0.70;99.90
48019;DHT22;33786;48.690;9.562;2023-12-04T14:07:22;-0.70;99.90
48019;DHT22;33786;48.690;9.562;2023-12-04T14:09:50;-0.70;99.90
48019;DHT22;33786;48.690;9.562;2023-12-04T14:12:17;-0.70;99.90
48019;DHT22;33786;48.690;9.562;2023-12-04T14:14:44;-0.70;99.90
48019;DHT22;33786;48.690;9.562;2023-12-04T14:17:11;-0.80;99.90
48019;DHT22;33786;48.690;9.562;2023-12-04T14:19:38;-1.00;99.90
48019;DHT22;33786;48.690;9.562;2023-12-04T14:22:06;-0.90;99.90
48019;DHT22;33786;48.690;9.562;2023-12-04T14:24:33;-0.90;99.90
48019;DHT22;33786;48.690;9.562;2023-12-04T14:27:02;-0.80;99.90
48019;DHT22;33786;48.690;9.562;2023-12-04T14:29:29;-0.80;99.90
48019;DHT22;33786;48.690;9.562;2023-12-04T14:31:56;-0.90;99.90
48019;DHT22;33786;48.690;9.562;2023-12-04T14:34:23;-0.90;99.90
48019;DHT22;33786;48.690;9.562;2023-12-04T14:36:51;-0.70;99.90
48019;DHT22;33786;48.690;9.562;2023-12-04T14:39:18;-0.60;99.90
48019;DHT22;33786;48.690;9.562;2023-12-04T14:41:45;-0.50;99.90
48019;DHT22;33786;48.690;9.562;2023-12-04T14:44:12;-0.30;99.90
48019;DHT22;33786;48.690;9.562;2023-12-04T14:46:39;-0.30;99.90
48019;DHT22;33786;48.690;9.562;2023-12-04T14:49:05;-0.20;99.90
48019;DHT22;33786;48.690;9.562;2023-12-04T14:51:32;-0.20;99.90
48019;DHT22;33786;48.690;9.562;2023-12-04T14:53:59;-0.20;99.90
48019;DHT22;33786;48.690;9.562;2023-12-04T14:56:49;-0.10;99.90
48019;DHT22;33786;48.690;9.562;2023-12-04T14:59:33;-0.10;99.90
48019;DHT22;33786;48.690;9.562;2023-12-04T15:02:15;-0.30;99.90
48019;DHT22;33786;48.690;9.562;2023-12-04T15:05:02;-0.40;99.90
48019;DHT22;33786;48.690;9.562;2023-12-04T15:07:35;-0.50;99.90
48019;DHT22;33786;48.690;9.562;2023-12-04T15:10:23;-0.60;99.90
48019;DHT22;33786;48.690;9.562;2023-12-04T15:13:10;-0.50;99.90
48019;DHT22;33786;48.690;9.562;2023-12-04T15:16:09;-0.60;99.90
48019;DHT22;33786;48.690;9.562;2023-12-04T15:18:40;-0.70;99.90
48019;DHT22;33786;48.690;9.562;2023-12-04T15:21:20;-0.70;99.90
48019;DHT22;33786;48.690;9.562;2023-12-04T15:23:49;-0.70;99.90
48019;DHT22;33786;48.690;9.562;2023-12-04T15:26:17;-0.70;99.90
48019;DHT22;33786;48.690;9.562;2023-12-04T15:28:44;-0.50;99.90
48019;DHT22;33786;48.690;9.562;2023-12-04T15:31:14;-0.60;99.90
48019;DHT22;33786;48.690;9.562;2023-12-04T15:33:41;-0.60;99.90
48019;DHT22;33786;48.690;9.562;2023-12-04T15:36:08;-0.60;99.90
48019;DHT22;33786;48.690;9.562;2023-12-04T15:38:37;-0.70;99.90
48019;DHT22;33786;48.690;9.562;2023-12-04T15:41:04;-0.90;99.90